Cottonwood, Oklahoma
Current Conditions -  °F | °C
As of 3:15 AM on Monday 24 Nov 2014 (Local Time) from KAQR Reporting Station
Clear Clear  
Wind Chill:   Ceiling: Unl
Heat Index:   Visibility: 10mi
Dew Point:   Wind: 3mph
Humidity: 70%   Direction: 290°WNW
Pressure: 29.87"   Gusts: NA
Location:  34.5844°N, 96.2026°W
Report Text: KAQR 240915Z AUTO 29003KT 10SM CLR 06/01 A2987 RMK AO2
Loading
Personal Weather Stations






























Interactive Weather Map New forecast layout! Learn more

10-Day Weather Forecast

Advertisements
Track Severe Weather on mobile